sensor_id;sensor_type;location;lat;lon;timestamp;temperature;humidity
17333;DHT22;8784;50.94667800;7.08448400;2022-09-17T00:00:01;13.20;99.90
17333;DHT22;8784;50.94667800;7.08448400;2022-09-17T00:02:28;13.20;99.90
17333;DHT22;8784;50.94667800;7.08448400;2022-09-17T00:04:55;13.30;99.90
17333;DHT22;8784;50.94667800;7.08448400;2022-09-17T00:07:22;13.40;99.90
17333;DHT22;8784;50.94667800;7.08448400;2022-09-17T00:09:48;13.50;99.90
17333;DHT22;8784;50.94667800;7.08448400;2022-09-17T00:12:15;13.60;99.90
17333;DHT22;8784;50.94667800;7.08448400;2022-09-17T00:14:42;13.70;99.90
17333;DHT22;8784;50.94667800;7.08448400;2022-09-17T00:17:11;13.70;99.90
17333;DHT22;8784;50.94667800;7.08448400;2022-09-17T00:19:38;13.80;99.90
17333;DHT22;8784;50.94667800;7.08448400;2022-09-17T00:22:05;13.90;99.90
17333;DHT22;8784;50.94667800;7.08448400;2022-09-17T00:24:32;14.00;99.90
17333;DHT22;8784;50.94667800;7.08448400;2022-09-17T00:26:59;14.10;99.90
17333;DHT22;8784;50.94667800;7.08448400;2022-09-17T00:29:25;14.10;99.90
17333;DHT22;8784;50.94667800;7.08448400;2022-09-17T00:31:52;14.10;99.90
17333;DHT22;8784;50.94667800;7.08448400;2022-09-17T00:34:20;14.10;99.90
17333;DHT22;8784;50.94667800;7.08448400;2022-09-17T00:36:47;14.20;99.90
17333;DHT22;8784;50.94667800;7.08448400;2022-09-17T00:39:14;14.20;99.90
17333;DHT22;8784;50.94667800;7.08448400;2022-09-17T00:41:42;14.10;99.90
17333;DHT22;8784;50.94667800;7.08448400;2022-09-17T00:47:22;14.10;99.90
17333;DHT22;8784;50.94667800;7.08448400;2022-09-17T00:49:54;14.10;99.90
17333;DHT22;8784;50.94667800;7.08448400;2022-09-17T00:52:24;14.20;99.90
17333;DHT22;8784;50.94667800;7.08448400;2022-09-17T00:54:57;14.10;99.90
17333;DHT22;8784;50.94667800;7.08448400;2022-09-17T00:57:25;14.10;99.90
17333;DHT22;8784;50.94667800;7.08448400;2022-09-17T00:59:53;14.00;99.90
17333;DHT22;8784;50.94667800;7.08448400;2022-09-17T01:02:20;13.90;99.90
17333;DHT22;8784;50.94667800;7.08448400;2022-09-17T01:04:46;13.70;99.90
17333;DHT22;8784;50.94667800;7.08448400;2022-09-17T01:07:24;13.60;99.90
17333;DHT22;8784;50.94667800;7.08448400;2022-09-17T01:09:55;13.60;99.90
17333;DHT22;8784;50.94667800;7.08448400;2022-09-17T01:12:38;13.50;99.90
17333;DHT22;8784;50.94667800;7.08448400;2022-09-17T01:15:20;13.40;99.90
17333;DHT22;8784;50.94667800;7.08448400;2022-09-17T01:17:59;13.40;99.90
17333;DHT22;8784;50.94667800;7.08448400;2022-09-17T01:21:12;13.40;99.90
17333;DHT22;8784;50.94667800;7.08448400;2022-09-17T01:24:03;13.30;99.90
17333;DHT22;8784;50.94667800;7.08448400;2022-09-17T01:26:58;13.40;99.90
17333;DHT22;8784;50.94667800;7.08448400;2022-09-17T01:29:42;13.30;99.90
17333;DHT22;8784;50.94667800;7.08448400;2022-09-17T01:32:16;13.30;99.90
17333;DHT22;8784;50.94667800;7.08448400;2022-09-17T01:34:51;13.20;99.90
17333;DHT22;8784;50.94667800;7.08448400;2022-09-17T01:37:27;13.20;99.90
17333;DHT22;8784;50.94667800;7.08448400;2022-09-17T01:40:01;13.10;99.90
17333;DHT22;8784;50.94667800;7.08448400;2022-09-17T01:42:36;13.10;99.90
17333;DHT22;8784;50.94667800;7.08448400;2022-09-17T01:45:07;13.00;99.90
17333;DHT22;8784;50.94667800;7.08448400;2022-09-17T01:47:40;13.00;99.90
17333;DHT22;8784;50.94667800;7.08448400;2022-09-17T01:50:11;13.00;99.90
17333;DHT22;8784;50.94667800;7.08448400;2022-09-17T01:52:41;13.10;99.90
17333;DHT22;8784;50.94667800;7.08448400;2022-09-17T01:55:13;13.00;99.90
17333;DHT22;8784;50.94667800;7.08448400;2022-09-17T01:57:44;13.00;99.90
17333;DHT22;8784;50.94667800;7.08448400;2022-09-17T02:00:14;13.10;99.90
17333;DHT22;8784;50.94667800;7.08448400;2022-09-17T02:02:47;13.20;99.90
17333;DHT22;8784;50.94667800;7.08448400;2022-09-17T02:05:18;13.20;99.90
17333;DHT22;8784;50.94667800;7.08448400;2022-09-17T02:07:51;13.40;99.90
17333;DHT22;8784;50.94667800;7.08448400;2022-09-17T02:10:22;13.60;99.90
17333;DHT22;8784;50.94667800;7.08448400;2022-09-17T02:12:55;13.70;99.90
17333;DHT22;8784;50.94667800;7.08448400;2022-09-17T02:15:31;13.80;99.90
17333;DHT22;8784;50.94667800;7.08448400;2022-09-17T02:18:06;13.90;99.90
17333;DHT22;8784;50.94667800;7.08448400;2022-09-17T02:20:38;13.90;99.90
17333;DHT22;8784;50.94667800;7.08448400;2022-09-17T02:23:11;13.80;99.90
17333;DHT22;8784;50.94667800;7.08448400;2022-09-17T02:25:43;13.70;99.90
17333;DHT22;8784;50.94667800;7.08448400;2022-09-17T02:28:16;13.60;99.90
17333;DHT22;8784;50.94667800;7.08448400;2022-09-17T02:30:46;13.70;99.90
17333;DHT22;8784;50.94667800;7.08448400;2022-09-17T02:33:14;13.70;99.90
17333;DHT22;8784;50.94667800;7.08448400;2022-09-17T02:35:42;13.60;99.90
17333;DHT22;8784;50.94667800;7.08448400;2022-09-17T02:38:09;13.70;99.90
17333;DHT22;8784;50.94667800;7.08448400;2022-09-17T02:40:45;13.70;99.90
17333;DHT22;8784;50.94667800;7.08448400;2022-09-17T02:43:21;13.70;99.90
17333;DHT22;8784;50.94667800;7.08448400;2022-09-17T02:45:59;13.70;99.90
17333;DHT22;8784;50.94667800;7.08448400;2022-09-17T02:48:53;13.70;99.90
17333;DHT22;8784;50.94667800;7.08448400;2022-09-17T02:51:32;13.60;99.90
17333;DHT22;8784;50.94667800;7.08448400;2022-09-17T02:54:08;13.60;99.90
17333;DHT22;8784;50.94667800;7.08448400;2022-09-17T02:56:43;13.60;99.90
17333;DHT22;8784;50.94667800;7.08448400;2022-09-17T02:59:16;13.50;99.90
17333;DHT22;8784;50.94667800;7.08448400;2022-09-17T03:01:50;13.40;99.90
17333;DHT22;8784;50.94667800;7.08448400;2022-09-17T03:04:21;13.30;99.90
17333;DHT22;8784;50.94667800;7.08448400;2022-09-17T03:06:51;13.20;99.90
17333;DHT22;8784;50.94667800;7.08448400;2022-09-17T03:09:18;13.10;99.90
17333;DHT22;8784;50.94667800;7.08448400;2022-09-17T03:11:45;13.20;99.90
17333;DHT22;8784;50.94667800;7.08448400;2022-09-17T03:14:12;13.20;99.90
17333;DHT22;8784;50.94667800;7.08448400;2022-09-17T03:16:39;13.10;99.90
17333;DHT22;8784;50.94667800;7.08448400;2022-09-17T03:19:06;13.10;99.90
17333;DHT22;8784;50.94667800;7.08448400;2022-09-17T03:21:34;13.10;99.90
17333;DHT22;8784;50.94667800;7.08448400;2022-09-17T03:24:01;13.10;99.90
17333;DHT22;8784;50.94667800;7.08448400;2022-09-17T03:26:28;13.10;99.90
17333;DHT22;8784;50.94667800;7.08448400;2022-09-17T03:28:55;13.00;99.90
17333;DHT22;8784;50.94667800;7.08448400;2022-09-17T03:31:23;13.00;99.90
17333;DHT22;8784;50.94667800;7.08448400;2022-09-17T03:33:50;13.00;99.90
17333;DHT22;8784;50.94667800;7.08448400;2022-09-17T03:36:16;13.00;99.90
17333;DHT22;8784;50.94667800;7.08448400;2022-09-17T03:38:45;13.00;99.90
17333;DHT22;8784;50.94667800;7.08448400;2022-09-17T03:41:11;13.00;99.90
17333;DHT22;8784;50.94667800;7.08448400;2022-09-17T03:43:38;12.90;99.90
17333;DHT22;8784;50.94667800;7.08448400;2022-09-17T03:46:05;13.00;99.90
17333;DHT22;8784;50.94667800;7.08448400;2022-09-17T03:48:32;13.00;99.90
17333;DHT22;8784;50.94667800;7.08448400;2022-09-17T03:51:02;13.00;99.90
17333;DHT22;8784;50.94667800;7.08448400;2022-09-17T03:53:29;13.00;99.90
17333;DHT22;8784;50.94667800;7.08448400;2022-09-17T03:55:58;13.00;99.90
17333;DHT22;8784;50.94667800;7.08448400;2022-09-17T03:58:26;12.90;99.90
17333;DHT22;8784;50.94667800;7.08448400;2022-09-17T04:00:53;13.00;99.90
17333;DHT22;8784;50.94667800;7.08448400;2022-09-17T04:03:22;13.00;99.90
17333;DHT22;8784;50.94667800;7.08448400;2022-09-17T04:05:49;13.10;99.90
17333;DHT22;8784;50.94667800;7.08448400;2022-09-17T04:08:16;13.20;99.90
17333;DHT22;8784;50.94667800;7.08448400;2022-09-17T04:10:44;13.30;99.90
17333;DHT22;8784;50.94667800;7.08448400;2022-09-17T04:13:13;13.40;99.90
17333;DHT22;8784;50.94667800;7.08448400;2022-09-17T04:15:41;13.50;99.90
17333;DHT22;8784;50.94667800;7.08448400;2022-09-17T04:18:08;13.60;99.90
17333;DHT22;8784;50.94667800;7.08448400;2022-09-17T04:20:35;13.60;99.90
17333;DHT22;8784;50.94667800;7.08448400;2022-09-17T04:23:02;13.70;99.90
17333;DHT22;8784;50.94667800;7.08448400;2022-09-17T04:25:31;13.70;99.90
17333;DHT22;8784;50.94667800;7.08448400;2022-09-17T04:27:58;13.70;99.90
17333;DHT22;8784;50.94667800;7.08448400;2022-09-17T04:30:26;13.60;99.90
17333;DHT22;8784;50.94667800;7.08448400;2022-09-17T04:32:53;13.50;99.90
17333;DHT22;8784;50.94667800;7.08448400;2022-09-17T04:35:20;13.50;99.90
17333;DHT22;8784;50.94667800;7.08448400;2022-09-17T04:37:51;13.50;99.90
17333;DHT22;8784;50.94667800;7.08448400;2022-09-17T04:40:19;13.50;99.90
17333;DHT22;8784;50.94667800;7.08448400;2022-09-17T04:42:45;13.60;99.90
17333;DHT22;8784;50.94667800;7.08448400;2022-09-17T04:45:13;13.60;99.90
17333;DHT22;8784;50.94667800;7.08448400;2022-09-17T04:47:41;13.60;99.90
17333;DHT22;8784;50.94667800;7.08448400;2022-09-17T04:50:08;13.60;99.90
17333;DHT22;8784;50.94667800;7.08448400;2022-09-17T04:52:35;13.60;99.90
17333;DHT22;8784;50.94667800;7.08448400;2022-09-17T04:55:03;13.70;99.90
17333;DHT22;8784;50.94667800;7.08448400;2022-09-17T04:57:30;13.80;99.90
17333;DHT22;8784;50.94667800;7.08448400;2022-09-17T04:59:56;13.80;99.90
17333;DHT22;8784;50.94667800;7.08448400;2022-09-17T05:02:23;13.70;99.90
17333;DHT22;8784;50.94667800;7.08448400;2022-09-17T05:04:51;13.60;99.90
17333;DHT22;8784;50.94667800;7.08448400;2022-09-17T05:07:18;13.50;99.90
17333;DHT22;8784;50.94667800;7.08448400;2022-09-17T05:09:45;13.50;99.90
17333;DHT22;8784;50.94667800;7.08448400;2022-09-17T05:12:12;13.40;99.90
17333;DHT22;8784;50.94667800;7.08448400;2022-09-17T05:14:41;13.30;99.90
17333;DHT22;8784;50.94667800;7.08448400;2022-09-17T05:17:08;13.30;99.90
17333;DHT22;8784;50.94667800;7.08448400;2022-09-17T05:19:35;13.20;99.90
17333;DHT22;8784;50.94667800;7.08448400;2022-09-17T05:22:03;13.20;99.90
17333;DHT22;8784;50.94667800;7.08448400;2022-09-17T05:24:30;13.20;99.90
17333;DHT22;8784;50.94667800;7.08448400;2022-09-17T05:26:58;13.10;99.90
17333;DHT22;8784;50.94667800;7.08448400;2022-09-17T05:29:25;13.20;99.90
17333;DHT22;8784;50.94667800;7.08448400;2022-09-17T05:31:51;13.10;99.90
17333;DHT22;8784;50.94667800;7.08448400;2022-09-17T05:34:18;13.10;99.90
17333;DHT22;8784;50.94667800;7.08448400;2022-09-17T05:36:45;13.10;99.90
17333;DHT22;8784;50.94667800;7.08448400;2022-09-17T05:39:15;13.10;99.90
17333;DHT22;8784;50.94667800;7.08448400;2022-09-17T05:41:41;13.10;99.90
17333;DHT22;8784;50.94667800;7.08448400;2022-09-17T05:44:09;13.10;99.90
17333;DHT22;8784;50.94667800;7.08448400;2022-09-17T05:46:36;13.10;99.90
17333;DHT22;8784;50.94667800;7.08448400;2022-09-17T05:49:03;13.00;99.90
17333;DHT22;8784;50.94667800;7.08448400;2022-09-17T05:51:30;13.00;99.90
17333;DHT22;8784;50.94667800;7.08448400;2022-09-17T05:53:57;13.00;99.90
17333;DHT22;8784;50.94667800;7.08448400;2022-09-17T05:56:25;13.00;99.90
17333;DHT22;8784;50.94667800;7.08448400;2022-09-17T05:58:54;13.10;99.90
17333;DHT22;8784;50.94667800;7.08448400;2022-09-17T06:01:22;13.10;99.90
17333;DHT22;8784;50.94667800;7.08448400;2022-09-17T06:03:48;13.20;99.90
17333;DHT22;8784;50.94667800;7.08448400;2022-09-17T06:06:15;13.30;99.90
17333;DHT22;8784;50.94667800;7.08448400;2022-09-17T06:08:42;13.40;99.90
17333;DHT22;8784;50.94667800;7.08448400;2022-09-17T06:11:09;13.50;99.90
17333;DHT22;8784;50.94667800;7.08448400;2022-09-17T06:13:37;13.70;99.90
17333;DHT22;8784;50.94667800;7.08448400;2022-09-17T06:16:04;13.90;99.90
17333;DHT22;8784;50.94667800;7.08448400;2022-09-17T06:18:31;14.20;99.90
17333;DHT22;8784;50.94667800;7.08448400;2022-09-17T06:20:59;14.40;99.90
17333;DHT22;8784;50.94667800;7.08448400;2022-09-17T06:23:27;14.50;99.90
17333;DHT22;8784;50.94667800;7.08448400;2022-09-17T06:25:56;14.50;99.90
17333;DHT22;8784;50.94667800;7.08448400;2022-09-17T06:28:23;14.50;99.90
17333;DHT22;8784;50.94667800;7.08448400;2022-09-17T06:30:52;14.60;99.90
17333;DHT22;8784;50.94667800;7.08448400;2022-09-17T06:33:21;14.50;99.90
17333;DHT22;8784;50.94667800;7.08448400;2022-09-17T06:35:54;14.60;99.90
17333;DHT22;8784;50.94667800;7.08448400;2022-09-17T06:38:21;14.90;99.90
17333;DHT22;8784;50.94667800;7.08448400;2022-09-17T06:40:49;15.10;99.90
17333;DHT22;8784;50.94667800;7.08448400;2022-09-17T06:43:16;15.20;99.90
17333;DHT22;8784;50.94667800;7.08448400;2022-09-17T06:45:43;15.30;99.90
17333;DHT22;8784;50.94667800;7.08448400;2022-09-17T06:48:11;15.40;99.90
17333;DHT22;8784;50.94667800;7.08448400;2022-09-17T06:50:38;15.30;99.90
17333;DHT22;8784;50.94667800;7.08448400;2022-09-17T06:53:05;15.30;99.90
17333;DHT22;8784;50.94667800;7.08448400;2022-09-17T06:55:33;15.20;99.90
17333;DHT22;8784;50.94667800;7.08448400;2022-09-17T06:58:00;15.10;99.90
17333;DHT22;8784;50.94667800;7.08448400;2022-09-17T07:00:26;15.00;99.90
17333;DHT22;8784;50.94667800;7.08448400;2022-09-17T07:02:55;14.80;99.90
17333;DHT22;8784;50.94667800;7.08448400;2022-09-17T07:05:24;14.80;99.90
17333;DHT22;8784;50.94667800;7.08448400;2022-09-17T07:07:51;14.60;99.90
17333;DHT22;8784;50.94667800;7.08448400;2022-09-17T07:10:18;14.50;99.90
17333;DHT22;8784;50.94667800;7.08448400;2022-09-17T07:12:45;14.40;99.90
17333;DHT22;8784;50.94667800;7.08448400;2022-09-17T07:15:12;14.30;99.90
17333;DHT22;8784;50.94667800;7.08448400;2022-09-17T07:17:40;14.30;99.90
17333;DHT22;8784;50.94667800;7.08448400;2022-09-17T07:20:08;14.20;99.90
17333;DHT22;8784;50.94667800;7.08448400;2022-09-17T07:22:37;14.10;99.90
17333;DHT22;8784;50.94667800;7.08448400;2022-09-17T07:25:05;14.00;99.90
17333;DHT22;8784;50.94667800;7.08448400;2022-09-17T07:27:32;14.00;99.90
17333;DHT22;8784;50.94667800;7.08448400;2022-09-17T07:29:59;14.10;99.90
17333;DHT22;8784;50.94667800;7.08448400;2022-09-17T07:32:28;14.10;99.90
17333;DHT22;8784;50.94667800;7.08448400;2022-09-17T07:34:55;14.20;99.90
17333;DHT22;8784;50.94667800;7.08448400;2022-09-17T07:37:22;14.20;99.90
17333;DHT22;8784;50.94667800;7.08448400;2022-09-17T07:39:53;14.30;99.90
17333;DHT22;8784;50.94667800;7.08448400;2022-09-17T07:42:20;14.30;99.90
17333;DHT22;8784;50.94667800;7.08448400;2022-09-17T07:44:47;14.20;99.90
17333;DHT22;8784;50.94667800;7.08448400;2022-09-17T07:47:14;14.40;99.90
17333;DHT22;8784;50.94667800;7.08448400;2022-09-17T07:49:41;14.20;99.90
17333;DHT22;8784;50.94667800;7.08448400;2022-09-17T07:52:08;14.30;99.90
17333;DHT22;8784;50.94667800;7.08448400;2022-09-17T07:54:35;14.40;99.90
17333;DHT22;8784;50.94667800;7.08448400;2022-09-17T07:57:04;14.40;99.90
17333;DHT22;8784;50.94667800;7.08448400;2022-09-17T07:59:31;14.40;99.90
17333;DHT22;8784;50.94667800;7.08448400;2022-09-17T08:01:58;14.50;99.90
17333;DHT22;8784;50.94667800;7.08448400;2022-09-17T08:04:25;14.60;99.90
17333;DHT22;8784;50.94667800;7.08448400;2022-09-17T08:06:52;14.70;99.90
17333;DHT22;8784;50.94667800;7.08448400;2022-09-17T08:09:19;14.80;99.90
17333;DHT22;8784;50.94667800;7.08448400;2022-09-17T08:11:47;15.00;99.90
17333;DHT22;8784;50.94667800;7.08448400;2022-09-17T08:14:15;15.20;99.90
17333;DHT22;8784;50.94667800;7.08448400;2022-09-17T08:16:42;15.30;99.90
17333;DHT22;8784;50.94667800;7.08448400;2022-09-17T08:19:10;15.50;99.90
17333;DHT22;8784;50.94667800;7.08448400;2022-09-17T08:21:37;15.60;99.90
17333;DHT22;8784;50.94667800;7.08448400;2022-09-17T08:24:04;15.70;99.90
17333;DHT22;8784;50.94667800;7.08448400;2022-09-17T08:26:31;16.00;99.90
17333;DHT22;8784;50.94667800;7.08448400;2022-09-17T08:28:59;16.10;99.90
17333;DHT22;8784;50.94667800;7.08448400;2022-09-17T08:31:28;16.30;99.90
17333;DHT22;8784;50.94667800;7.08448400;2022-09-17T08:33:55;16.40;99.90
17333;DHT22;8784;50.94667800;7.08448400;2022-09-17T08:36:22;16.60;99.90
17333;DHT22;8784;50.94667800;7.08448400;2022-09-17T08:38:51;16.60;99.90
17333;DHT22;8784;50.94667800;7.08448400;2022-09-17T08:41:23;16.60;99.90
17333;DHT22;8784;50.94667800;7.08448400;2022-09-17T08:44:00;16.70;99.90
17333;DHT22;8784;50.94667800;7.08448400;2022-09-17T08:46:31;16.70;99.90
17333;DHT22;8784;50.94667800;7.08448400;2022-09-17T08:49:06;16.60;99.90
17333;DHT22;8784;50.94667800;7.08448400;2022-09-17T08:51:45;16.50;99.90
17333;DHT22;8784;50.94667800;7.08448400;2022-09-17T08:54:21;16.60;99.90
17333;DHT22;8784;50.94667800;7.08448400;2022-09-17T08:57:09;16.60;99.90
17333;DHT22;8784;50.94667800;7.08448400;2022-09-17T08:59:46;16.60;99.90
17333;DHT22;8784;50.94667800;7.08448400;2022-09-17T09:02:23;16.70;99.90
17333;DHT22;8784;50.94667800;7.08448400;2022-09-17T09:05:00;16.80;99.90
17333;DHT22;8784;50.94667800;7.08448400;2022-09-17T09:07:30;17.00;99.90
17333;DHT22;8784;50.94667800;7.08448400;2022-09-17T09:10:07;17.30;99.90
17333;DHT22;8784;50.94667800;7.08448400;2022-09-17T09:12:38;17.60;99.90
17333;DHT22;8784;50.94667800;7.08448400;2022-09-17T09:15:14;17.70;99.90
17333;DHT22;8784;50.94667800;7.08448400;2022-09-17T09:17:46;17.60;99.90
17333;DHT22;8784;50.94667800;7.08448400;2022-09-17T09:20:18;17.40;99.90
17333;DHT22;8784;50.94667800;7.08448400;2022-09-17T09:22:47;17.40;99.90
17333;DHT22;8784;50.94667800;7.08448400;2022-09-17T09:25:20;17.90;99.90
17333;DHT22;8784;50.94667800;7.08448400;2022-09-17T09:28:11;18.50;99.90
17333;DHT22;8784;50.94667800;7.08448400;2022-09-17T09:30:51;18.60;99.80
17333;DHT22;8784;50.94667800;7.08448400;2022-09-17T09:33:25;19.10;99.50
17333;DHT22;8784;50.94667800;7.08448400;2022-09-17T09:35:54;19.40;99.30
17333;DHT22;8784;50.94667800;7.08448400;2022-09-17T09:38:28;19.80;99.10
17333;DHT22;8784;50.94667800;7.08448400;2022-09-17T09:41:01;20.30;98.60
17333;DHT22;8784;50.94667800;7.08448400;2022-09-17T09:43:38;20.40;97.30
17333;DHT22;8784;50.94667800;7.08448400;2022-09-17T09:46:26;20.60;96.40
17333;DHT22;8784;50.94667800;7.08448400;2022-09-17T09:49:05;20.80;95.90
17333;DHT22;8784;50.94667800;7.08448400;2022-09-17T09:51:43;21.00;95.60
17333;DHT22;8784;50.94667800;7.08448400;2022-09-17T09:54:24;20.80;94.60
17333;DHT22;8784;50.94667800;7.08448400;2022-09-17T09:56:56;20.70;94.30
17333;DHT22;8784;50.94667800;7.08448400;2022-09-17T09:59:23;20.60;94.20
17333;DHT22;8784;50.94667800;7.08448400;2022-09-17T10:01:51;20.30;94.10
17333;DHT22;8784;50.94667800;7.08448400;2022-09-17T10:04:21;19.90;93.80
17333;DHT22;8784;50.94667800;7.08448400;2022-09-17T10:06:51;19.50;93.70
17333;DHT22;8784;50.94667800;7.08448400;2022-09-17T10:09:19;19.20;93.90
17333;DHT22;8784;50.94667800;7.08448400;2022-09-17T10:12:00;18.90;94.30
17333;DHT22;8784;50.94667800;7.08448400;2022-09-17T10:14:28;18.70;93.80
17333;DHT22;8784;50.94667800;7.08448400;2022-09-17T10:17:16;18.90;94.40
17333;DHT22;8784;50.94667800;7.08448400;2022-09-17T10:19:46;19.00;94.00
17333;DHT22;8784;50.94667800;7.08448400;2022-09-17T10:22:31;18.90;93.90
17333;DHT22;8784;50.94667800;7.08448400;2022-09-17T10:25:00;18.70;93.50
17333;DHT22;8784;50.94667800;7.08448400;2022-09-17T10:27:27;18.40;93.70
17333;DHT22;8784;50.94667800;7.08448400;2022-09-17T10:30:01;18.20;93.80
17333;DHT22;8784;50.94667800;7.08448400;2022-09-17T10:32:29;18.10;93.90
17333;DHT22;8784;50.94667800;7.08448400;2022-09-17T10:35:00;18.40;94.30
17333;DHT22;8784;50.94667800;7.08448400;2022-09-17T10:37:42;18.50;94.50
17333;DHT22;8784;50.94667800;7.08448400;2022-09-17T10:40:25;18.70;93.80
17333;DHT22;8784;50.94667800;7.08448400;2022-09-17T10:43:16;18.60;92.90
17333;DHT22;8784;50.94667800;7.08448400;2022-09-17T10:45:52;18.50;92.90
17333;DHT22;8784;50.94667800;7.08448400;2022-09-17T10:48:21;18.40;92.90
17333;DHT22;8784;50.94667800;7.08448400;2022-09-17T10:50:51;18.50;93.00
17333;DHT22;8784;50.94667800;7.08448400;2022-09-17T10:53:19;18.60;93.30
17333;DHT22;8784;50.94667800;7.08448400;2022-09-17T10:55:50;18.80;92.90
17333;DHT22;8784;50.94667800;7.08448400;2022-09-17T10:58:29;18.90;93.10
17333;DHT22;8784;50.94667800;7.08448400;2022-09-17T11:01:07;18.90;92.50
17333;DHT22;8784;50.94667800;7.08448400;2022-09-17T11:04:01;18.90;92.40
17333;DHT22;8784;50.94667800;7.08448400;2022-09-17T11:09:46;18.80;92.10
17333;DHT22;8784;50.94667800;7.08448400;2022-09-17T11:12:23;18.80;92.20
17333;DHT22;8784;50.94667800;7.08448400;2022-09-17T11:14:59;18.70;92.30
17333;DHT22;8784;50.94667800;7.08448400;2022-09-17T11:17:46;18.70;92.60
17333;DHT22;8784;50.94667800;7.08448400;2022-09-17T11:20:35;18.70;92.20
17333;DHT22;8784;50.94667800;7.08448400;2022-09-17T11:23:26;18.70;92.50
17333;DHT22;8784;50.94667800;7.08448400;2022-09-17T11:26:00;18.60;92.10
17333;DHT22;8784;50.94667800;7.08448400;2022-09-17T11:28:45;18.50;92.30
17333;DHT22;8784;50.94667800;7.08448400;2022-09-17T11:31:23;18.40;91.90
17333;DHT22;8784;50.94667800;7.08448400;2022-09-17T11:34:13;18.20;91.60
17333;DHT22;8784;50.94667800;7.08448400;2022-09-17T11:36:49;17.90;91.70
17333;DHT22;8784;50.94667800;7.08448400;2022-09-17T11:39:22;18.10;91.90
17333;DHT22;8784;50.94667800;7.08448400;2022-09-17T11:41:54;18.10;91.90
17333;DHT22;8784;50.94667800;7.08448400;2022-09-17T11:44:26;18.10;92.30
17333;DHT22;8784;50.94667800;7.08448400;2022-09-17T11:46:56;18.30;92.60
17333;DHT22;8784;50.94667800;7.08448400;2022-09-17T11:49:28;18.50;92.30
17333;DHT22;8784;50.94667800;7.08448400;2022-09-17T11:52:01;18.60;91.80
17333;DHT22;8784;50.94667800;7.08448400;2022-09-17T11:54:32;18.70;91.60
17333;DHT22;8784;50.94667800;7.08448400;2022-09-17T11:57:09;18.70;91.20
17333;DHT22;8784;50.94667800;7.08448400;2022-09-17T11:59:41;18.60;91.30
17333;DHT22;8784;50.94667800;7.08448400;2022-09-17T12:02:17;18.50;91.30
17333;DHT22;8784;50.94667800;7.08448400;2022-09-17T12:04:51;18.30;90.90
17333;DHT22;8784;50.94667800;7.08448400;2022-09-17T12:07:27;18.00;91.20
17333;DHT22;8784;50.94667800;7.08448400;2022-09-17T12:09:59;17.60;92.10
17333;DHT22;8784;50.94667800;7.08448400;2022-09-17T12:12:28;17.30;92.90
17333;DHT22;8784;50.94667800;7.08448400;2022-09-17T12:14:58;17.20;93.70
17333;DHT22;8784;50.94667800;7.08448400;2022-09-17T12:17:35;17.00;94.20
17333;DHT22;8784;50.94667800;7.08448400;2022-09-17T12:20:06;16.80;95.20
17333;DHT22;8784;50.94667800;7.08448400;2022-09-17T12:22:37;16.40;95.60
17333;DHT22;8784;50.94667800;7.08448400;2022-09-17T12:25:11;16.30;96.40
17333;DHT22;8784;50.94667800;7.08448400;2022-09-17T12:27:47;16.40;96.90
17333;DHT22;8784;50.94667800;7.08448400;2022-09-17T12:30:22;16.50;96.90
17333;DHT22;8784;50.94667800;7.08448400;2022-09-17T12:36:08;16.60;97.20
17333;DHT22;8784;50.94667800;7.08448400;2022-09-17T12:38:58;16.70;97.30
17333;DHT22;8784;50.94667800;7.08448400;2022-09-17T12:41:37;16.80;97.50
17333;DHT22;8784;50.94667800;7.08448400;2022-09-17T12:44:22;17.00;97.40
17333;DHT22;8784;50.94667800;7.08448400;2022-09-17T12:47:03;17.10;97.30
17333;DHT22;8784;50.94667800;7.08448400;2022-09-17T12:50:00;17.30;97.30
17333;DHT22;8784;50.94667800;7.08448400;2022-09-17T12:52:38;17.40;97.20
17333;DHT22;8784;50.94667800;7.08448400;2022-09-17T12:55:24;17.40;96.90
17333;DHT22;8784;50.94667800;7.08448400;2022-09-17T12:58:03;17.50;96.80
17333;DHT22;8784;50.94667800;7.08448400;2022-09-17T13:00:37;17.60;96.90
17333;DHT22;8784;50.94667800;7.08448400;2022-09-17T13:03:14;17.60;96.90
17333;DHT22;8784;50.94667800;7.08448400;2022-09-17T13:06:27;17.60;96.70
17333;DHT22;8784;50.94667800;7.08448400;2022-09-17T13:09:18;17.60;96.70
17333;DHT22;8784;50.94667800;7.08448400;2022-09-17T13:15:05;17.40;96.60
17333;DHT22;8784;50.94667800;7.08448400;2022-09-17T13:17:48;17.20;96.50
17333;DHT22;8784;50.94667800;7.08448400;2022-09-17T13:20:25;16.80;96.70
17333;DHT22;8784;50.94667800;7.08448400;2022-09-17T13:22:55;16.30;97.30
17333;DHT22;8784;50.94667800;7.08448400;2022-09-17T13:25:24;15.90;98.40
17333;DHT22;8784;50.94667800;7.08448400;2022-09-17T13:28:05;15.70;99.20
17333;DHT22;8784;50.94667800;7.08448400;2022-09-17T13:30:54;15.50;99.50
17333;DHT22;8784;50.94667800;7.08448400;2022-09-17T13:33:57;15.30;99.90
17333;DHT22;8784;50.94667800;7.08448400;2022-09-17T13:36:42;15.30;99.90
17333;DHT22;8784;50.94667800;7.08448400;2022-09-17T13:41:59;15.00;99.90
17333;DHT22;8784;50.94667800;7.08448400;2022-09-17T13:44:28;14.90;99.90
17333;DHT22;8784;50.94667800;7.08448400;2022-09-17T13:47:11;14.90;99.90
17333;DHT22;8784;50.94667800;7.08448400;2022-09-17T13:49:46;15.00;99.90
17333;DHT22;8784;50.94667800;7.08448400;2022-09-17T13:52:14;15.00;99.90
17333;DHT22;8784;50.94667800;7.08448400;2022-09-17T13:54:54;15.00;99.90
17333;DHT22;8784;50.94667800;7.08448400;2022-09-17T13:57:22;15.00;99.90
17333;DHT22;8784;50.94667800;7.08448400;2022-09-17T13:59:55;15.00;99.90
17333;DHT22;8784;50.94667800;7.08448400;2022-09-17T14:02:33;15.00;99.90
17333;DHT22;8784;50.94667800;7.08448400;2022-09-17T14:05:30;15.20;99.90
17333;DHT22;8784;50.94667800;7.08448400;2022-09-17T14:08:23;15.40;99.90
17333;DHT22;8784;50.94667800;7.08448400;2022-09-17T14:10:53;15.40;99.90
17333;DHT22;8784;50.94667800;7.08448400;2022-09-17T14:13:43;15.50;99.90
17333;DHT22;8784;50.94667800;7.08448400;2022-09-17T14:16:32;15.60;99.90